Time;durP1;ratioP1;P1;durP2;ratioP2;P2;SDS_P1;SDS_P2;PMS_P1;PMS_P2;Temp;Humidity;BMP_temperature;BMP_pressure;BME280_temperature;BME280_humidity;BME280_pressure;Samples;Min_cycle;Max_cycle;Signal;HPM_P1;HPM_P2
2022/01/08 00:00:55;;;;;;;23.30;13.20;;;;;;;-2.46;72.00;101868.24;108075;1249;71193;-88
2022/01/08 00:03:24;;;;;;;26.50;13.80;;;;;;;-2.42;71.70;101868.59;107802;1249;70883;-88
2022/01/08 00:05:56;;;;;;;24.20;12.60;;;;;;;-2.38;72.31;101863.98;107481;1249;70624;-86
2022/01/08 00:08:25;;;;;;;23.00;12.40;;;;;;;-2.34;71.66;101861.06;107802;1249;60656;-85
2022/01/08 00:10:54;;;;;;;23.90;11.50;;;;;;;-2.31;71.46;101856.81;107599;1250;61675;-88
2022/01/08 00:13:23;;;;;;;26.50;12.80;;;;;;;-2.26;71.85;101858.85;107686;1249;74955;-88
2022/01/08 00:15:53;;;;;;;24.30;12.60;;;;;;;-2.29;71.15;101857.65;107670;1248;71481;-88
2022/01/08 00:18:22;;;;;;;25.50;12.80;;;;;;;-2.26;71.38;101853.21;107673;1250;70344;-89
2022/01/08 00:20:52;;;;;;;22.90;11.90;;;;;;;-2.20;71.82;101854.90;107159;1250;74830;-83
2022/01/08 00:23:21;;;;;;;23.10;12.10;;;;;;;-2.17;71.36;101850.98;107318;1249;60832;-84
2022/01/08 00:25:50;;;;;;;24.20;12.30;;;;;;;-2.10;71.51;101851.65;107334;1249;61177;-81
2022/01/08 00:28:19;;;;;;;21.20;11.60;;;;;;;-2.07;71.10;101848.92;107475;1249;74776;-84
2022/01/08 00:30:50;;;;;;;20.60;10.80;;;;;;;-2.04;71.04;101845.67;107238;1249;73148;-83
2022/01/08 00:33:19;;;;;;;20.70;11.80;;;;;;;-2.02;70.50;101841.56;107451;1249;71049;-86
2022/01/08 00:35:48;;;;;;;23.70;11.00;;;;;;;-2.02;70.48;101843.27;107343;1249;73398;-85
2022/01/08 00:38:17;;;;;;;19.50;11.90;;;;;;;-1.98;70.58;101837.29;107472;1249;59619;-85
2022/01/08 00:40:46;;;;;;;21.20;12.10;;;;;;;-1.96;70.45;101830.46;107456;1248;60711;-85
2022/01/08 00:43:15;;;;;;;21.50;11.60;;;;;;;-1.99;70.35;101829.61;107382;1249;73407;-84
2022/01/08 00:45:45;;;;;;;20.00;10.90;;;;;;;-1.97;70.67;101825.84;107346;1249;71582;-85
2022/01/08 00:48:14;;;;;;;20.60;11.40;;;;;;;-1.97;70.77;101829.59;107395;1249;70689;-86
2022/01/08 00:50:43;;;;;;;21.50;12.10;;;;;;;-1.95;71.01;101823.11;107553;1249;74315;-91
2022/01/08 00:53:12;;;;;;;20.30;11.70;;;;;;;-1.95;70.72;101822.77;107725;1249;59509;-90
2022/01/08 00:55:41;;;;;;;21.70;11.40;;;;;;;-1.93;71.09;101823.44;107851;1249;60048;-91
2022/01/08 00:58:11;;;;;;;21.80;11.80;;;;;;;-1.95;70.51;101818.15;109144;1249;75398;-91
2022/01/08 01:00:41;;;;;;;17.90;10.60;;;;;;;-1.95;71.07;101815.94;107729;1249;71171;-90
2022/01/08 01:03:10;;;;;;;19.60;11.50;;;;;;;-1.95;70.75;101813.20;107836;1249;68716;-88
2022/01/08 01:05:39;;;;;;;20.90;11.50;;;;;;;-1.97;71.12;101809.12;107558;1249;675283;-89
2022/01/08 01:08:08;;;;;;;18.80;10.90;;;;;;;-1.93;70.44;101809.95;107661;1249;62631;-89
2022/01/08 01:10:38;;;;;;;18.30;10.90;;;;;;;-1.88;70.63;101807.55;108672;1248;60479;-91
2022/01/08 01:13:08;;;;;;;19.00;11.80;;;;;;;-1.81;70.64;101801.38;108295;1248;75432;-91
2022/01/08 01:15:37;;;;;;;17.90;10.90;;;;;;;-1.86;70.39;101799.17;108835;1249;73186;-87
2022/01/08 01:18:06;;;;;;;20.20;11.60;;;;;;;-1.77;70.60;101795.89;108424;1248;71073;-85
2022/01/08 01:20:36;;;;;;;21.70;11.60;;;;;;;-1.76;70.38;101794.52;107666;1249;74730;-83
2022/01/08 01:23:19;;;;;;;20.10;11.10;;;;;;;-1.74;70.19;101787.70;107631;1249;60283;-86
2022/01/08 01:25:56;;;;;;;;;;;;;;;-1.70;70.32;101783.57;107661;1249;60430;-89
2022/01/08 01:42:15;;;;;;;15.40;8.90;;;;;;;-1.56;69.86;101758.37;107876;1249;59691;-88
2022/01/08 01:47:35;;;;;;;20.50;9.70;;;;;;;-1.39;70.08;101753.66;107578;1250;70153;-88
2022/01/08 01:50:07;;;;;;;17.30;10.20;;;;;;;-1.36;69.37;101754.33;107473;1249;69798;-86
2022/01/08 01:52:37;;;;;;;16.60;9.30;;;;;;;-1.34;68.81;101751.92;107186;1250;72837;-85
2022/01/08 01:55:07;;;;;;;17.10;9.70;;;;;;;-1.34;68.79;101742.36;107306;1249;59652;-87
2022/01/08 01:57:37;;;;;;;29.80;10.40;;;;;;;-1.28;68.53;101748.65;107234;1250;60696;-84
2022/01/08 02:00:08;;;;;;;19.00;10.00;;;;;;;-1.28;68.92;101739.06;107515;1249;72949;-85
2022/01/08 02:02:40;;;;;;;16.50;9.20;;;;;;;-1.30;68.75;101735.67;107156;1249;72865;-86
2022/01/08 02:05:10;;;;;;;17.40;9.10;;;;;;;-1.23;68.78;101733.73;107352;1249;68765;-82
2022/01/08 02:07:39;;;;;;;19.80;9.30;;;;;;;-1.20;68.71;101733.70;107725;1249;73141;-86
2022/01/08 02:10:09;;;;;;;15.20;8.90;;;;;;;-1.19;68.83;101728.23;107503;1249;60114;-83
2022/01/08 02:12:38;;;;;;;19.30;9.80;;;;;;;-1.14;69.03;101725.64;107119;1251;62184;-83
2022/01/08 02:15:08;;;;;;;17.90;9.30;;;;;;;-1.16;68.59;101722.23;107360;1249;75407;-83
2022/01/08 02:17:37;;;;;;;17.80;9.40;;;;;;;-1.13;68.84;101720.49;107122;1250;73186;-84
2022/01/08 02:20:08;;;;;;;16.20;8.40;;;;;;;-1.10;68.48;101719.43;106957;1250;69113;-85
2022/01/08 02:22:37;;;;;;;18.90;9.20;;;;;;;-1.05;68.44;101717.36;107203;1250;71258;-85
2022/01/08 02:25:07;;;;;;;16.30;9.90;;;;;;;-1.05;68.15;101716.67;107275;1249;60525;-85
2022/01/08 02:27:36;;;;;;;15.80;9.70;;;;;;;-1.05;68.29;101710.35;107101;1250;60865;-86
2022/01/08 02:30:06;;;;;;;17.00;9.50;;;;;;;-1.03;68.27;101708.09;107486;1249;70724;-86
2022/01/08 02:32:35;;;;;;;15.70;9.70;;;;;;;-1.01;68.38;101705.02;107707;1249;70159;-85
2022/01/08 02:35:05;;;;;;;15.20;8.70;;;;;;;-0.98;68.18;101709.07;107480;1249;70985;-85
2022/01/08 02:37:35;;;;;;;15.20;9.00;;;;;;;-0.96;67.89;101704.62;107644;1249;72861;-88
2022/01/08 02:40:07;;;;;;;15.60;8.50;;;;;;;-0.94;67.52;101714.69;108104;1249;59677;-87
2022/01/08 02:42:39;;;;;;;16.00;8.10;;;;;;;-0.91;67.68;101711.42;107907;1249;61648;-89
2022/01/08 02:45:09;;;;;;;15.70;9.00;;;;;;;-0.91;67.43;101703.89;107445;1249;72437;-89
2022/01/08 02:47:38;;;;;;;14.50;8.40;;;;;;;-0.83;67.86;101706.21;107393;1249;72288;-88
2022/01/08 02:50:08;;;;;;;15.20;8.50;;;;;;;-0.81;67.55;101704.81;107523;1249;68424;-88
2022/01/08 02:52:42;;;;;;;17.00;7.70;;;;;;;-0.80;66.71;101698.48;107337;1251;71174;-86
2022/01/08 02:55:14;;;;;;;14.40;8.30;;;;;;;-0.75;66.37;101687.48;107559;1249;59625;-89
2022/01/08 02:57:44;;;;;;;13.30;7.50;;;;;;;-0.70;65.59;101687.45;107519;1250;60051;-87
2022/01/08 03:00:18;;;;;;;14.50;8.20;;;;;;;-0.67;65.81;101687.07;107268;1251;72541;-90
2022/01/08 03:02:51;;;;;;;14.30;8.00;;;;;;;-0.70;65.79;101687.95;107708;1249;71804;-90
2022/01/08 03:05:20;;;;;;;;;;;;;;;-0.66;65.70;101686.02;107580;1250;69286;-89
2022/01/08 03:07:50;;;;;;;16.20;7.10;;;;;;;-0.70;65.85;101682.31;107622;1249;72033;-84
2022/01/08 03:10:19;;;;;;;15.20;7.40;;;;;;;-0.65;65.33;101689.95;107659;1249;59887;-84
2022/01/08 03:12:49;;;;;;;10.60;5.80;;;;;;;-0.65;64.50;101695.77;107601;1249;59700;-89
2022/01/08 03:15:21;;;;;;;15.30;8.70;;;;;;;-0.68;64.27;101695.62;107895;1249;71678;-85
2022/01/08 03:17:50;;;;;;;14.10;7.40;;;;;;;-0.72;63.88;101695.67;107680;1249;70395;-90
2022/01/08 03:20:20;;;;;;;11.90;7.80;;;;;;;-0.67;63.66;101698.70;107898;1249;70896;-90
2022/01/08 03:22:50;;;;;;;16.20;7.10;;;;;;;-0.67;63.75;101693.41;107988;1250;72132;-89
2022/01/08 03:25:19;;;;;;;14.20;7.20;;;;;;;-0.65;63.73;101690.81;107420;1249;60117;-91
2022/01/08 03:27:53;;;;;;;14.30;7.40;;;;;;;-0.63;63.81;101688.91;107502;1251;60929;-84
2022/01/08 03:30:24;;;;;;;14.20;7.20;;;;;;;-0.62;63.91;101687.19;107774;1249;74113;-87
2022/01/08 03:32:54;;;;;;;14.80;6.80;;;;;;;-0.64;63.57;101687.21;109337;1249;69952;-84
2022/01/08 03:35:24;;;;;;;12.90;6.50;;;;;;;-0.63;63.04;101688.73;107810;1249;68255;-88
2022/01/08 03:37:53;;;;;;;10.00;6.00;;;;;;;-0.66;62.56;101685.86;107337;1249;72251;-90
2022/01/08 03:40:22;;;;;;;9.10;5.50;;;;;;;-0.63;63.11;101687.88;107374;1249;59820;-89
2022/01/08 03:42:51;;;;;;;9.90;5.60;;;;;;;-0.63;62.78;101692.50;107467;1249;59039;-84
2022/01/08 03:45:21;;;;;;;10.20;5.90;;;;;;;-0.61;62.99;101693.86;107714;1249;72048;-92
2022/01/08 03:50:19;;;;;;;11.10;5.70;;;;;;;-0.63;63.18;101690.80;107653;1249;69208;-92
2022/01/08 03:52:50;;;;;;;12.80;5.80;;;;;;;-0.63;63.34;101682.07;107690;1249;71642;-80
2022/01/08 03:55:19;;;;;;;10.80;5.20;;;;;;;-0.67;63.31;101681.08;107700;1249;60263;-92
2022/01/08 03:57:48;;;;;;;9.50;5.70;;;;;;;-0.70;64.06;101678.37;107523;1250;59132;-78
2022/01/08 04:00:17;;;;;;;13.90;5.70;;;;;;;-0.77;63.50;101679.63;107689;1249;72865;-88
2022/01/08 04:02:46;;;;;;;10.90;5.90;;;;;;;-0.80;64.40;101677.46;107740;1248;70373;-90
2022/01/08 04:05:15;;;;;;;13.00;5.70;;;;;;;-0.85;64.27;101678.01;107930;1249;70104;-89
2022/01/08 04:07:44;;;;;;;9.50;5.20;;;;;;;-0.90;64.56;101675.33;107965;1250;75722;-84
2022/01/08 04:10:13;;;;;;;9.20;5.90;;;;;;;-1.03;64.90;101667.40;108770;1249;60335;-86
2022/01/08 04:12:47;;;;;;;10.30;5.80;;;;;;;-1.08;65.28;101673.42;108020;1248;61085;-90
2022/01/08 04:15:33;;;;;;;10.20;5.00;;;;;;;-1.11;65.52;101667.65;108606;1249;76144;-89
2022/01/08 04:18:04;;;;;;;11.80;5.70;;;;;;;-1.17;66.15;101668.73;109312;1248;72418;-81
2022/01/08 04:20:50;;;;;;;10.60;5.60;;;;;;;-1.25;66.57;101670.85;108955;1249;70461;-81
2022/01/08 04:23:21;;;;;;;14.50;6.80;;;;;;;-1.30;66.78;101672.77;108087;1248;74312;-83
2022/01/08 04:25:50;;;;;;;11.80;6.80;;;;;;;-1.38;66.93;101669.41;107679;1249;59579;-79
2022/01/08 04:28:20;;;;;;;11.60;6.50;;;;;;;-1.44;67.61;101667.58;107556;1249;60748;-90
2022/01/08 04:30:49;;;;;;;10.20;5.70;;;;;;;-1.48;67.34;101664.02;107542;1249;72877;-88
2022/01/08 04:33:18;;;;;;;15.40;7.10;;;;;;;-1.55;67.58;101658.79;107472;1249;71943;-88
2022/01/08 04:35:47;;;;;;;11.10;6.40;;;;;;;-1.62;67.95;101660.52;107598;1249;71488;-88
2022/01/08 04:38:16;;;;;;;9.60;5.70;;;;;;;-1.65;68.50;101660.73;107386;1251;74236;-87
2022/01/08 04:40:45;;;;;;;11.00;6.40;;;;;;;-1.66;68.29;101660.21;108493;1248;61928;-88
2022/01/08 04:43:14;;;;;;;13.00;6.60;;;;;;;-1.65;68.24;101655.59;107675;1249;60222;-90
2022/01/08 04:45:44;;;;;;;14.70;7.20;;;;;;;-1.66;68.08;101654.40;107471;1249;74872;-88
2022/01/08 04:48:13;;;;;;;16.60;8.00;;;;;;;-1.66;68.44;101656.96;107348;1249;71801;-89
2022/01/08 04:50:42;;;;;;;12.40;6.60;;;;;;;-1.65;68.26;101655.61;107238;1251;68364;-88
2022/01/08 04:53:11;;;;;;;11.80;6.40;;;;;;;-1.67;68.15;101651.86;107398;1249;72333;-89
2022/01/08 04:55:40;;;;;;;11.90;7.30;;;;;;;-1.72;68.46;101651.70;107496;1249;59534;-88
2022/01/08 04:58:09;;;;;;;16.00;7.10;;;;;;;-1.74;68.75;101649.17;108550;1249;59057;-83
2022/01/08 05:00:39;;;;;;;12.60;6.40;;;;;;;-1.74;68.72;101645.77;108266;1249;74117;-86
2022/01/08 05:03:08;;;;;;;11.40;6.60;;;;;;;-1.78;69.05;101646.97;107729;1248;70640;-88
2022/01/08 05:05:38;;;;;;;12.10;6.50;;;;;;;-1.78;69.06;101645.77;107685;1249;69808;-87
2022/01/08 05:08:07;;;;;;;9.90;6.40;;;;;;;-1.81;69.65;101637.61;107638;1249;75315;-88
2022/01/08 05:10:36;;;;;;;12.00;7.80;;;;;;;-1.88;69.70;101635.24;107572;1249;59318;-89
2022/01/08 05:13:06;;;;;;;14.70;7.40;;;;;;;-1.89;69.78;101630.64;107239;1250;59635;-90
2022/01/08 05:15:36;;;;;;;12.30;7.10;;;;;;;-1.91;69.77;101633.05;107473;1249;72477;-90
2022/01/08 05:18:07;;;;;;;14.80;7.00;;;;;;;-1.89;70.26;101631.33;107376;1249;72359;-91
2022/01/08 05:20:40;;;;;;;14.20;7.90;;;;;;;-1.87;69.98;101633.38;107171;1250;70955;-91
2022/01/08 05:23:09;;;;;;;14.80;7.20;;;;;;;-1.87;70.66;101633.88;107503;1249;72830;-88
2022/01/08 05:25:39;;;;;;;17.30;7.50;;;;;;;-1.84;70.41;101637.63;107528;1249;58928;-88
2022/01/08 05:28:08;;;;;;;15.10;7.70;;;;;;;-1.83;70.96;101634.38;107890;1249;60439;-89
2022/01/08 05:30:37;;;;;;;9.20;5.50;;;;;;;-1.85;70.33;101632.85;107376;1250;75286;-92
2022/01/08 05:33:05;;;;;;;13.80;7.00;;;;;;;-1.90;70.33;101629.98;107286;1249;72226;-89
2022/01/08 05:35:34;;;;;;;13.20;7.30;;;;;;;-1.92;70.52;101626.41;107326;1249;71640;-90
2022/01/08 05:38:04;;;;;;;14.50;7.30;;;;;;;-1.93;71.04;101627.44;107426;1249;73957;-90
2022/01/08 05:40:33;;;;;;;13.80;7.30;;;;;;;-1.95;70.91;101626.23;107317;1249;61838;-91
2022/01/08 05:43:03;;;;;;;12.40;6.70;;;;;;;-1.99;71.00;101627.13;107374;1249;59645;-89
2022/01/08 05:45:32;;;;;;;17.20;7.00;;;;;;;-1.99;70.88;101626.61;107473;1249;73605;-88
2022/01/08 05:48:01;;;;;;;17.50;7.70;;;;;;;-1.97;71.07;101630.36;108410;1249;72986;-90
2022/01/08 05:50:30;;;;;;;14.10;7.60;;;;;;;-1.95;71.38;101635.47;107349;1250;71028;-89
2022/01/08 05:52:58;;;;;;;12.10;7.60;;;;;;;-1.93;71.73;101636.83;107341;1250;75139;-89
2022/01/08 05:55:28;;;;;;;11.90;6.80;;;;;;;-1.93;71.00;101639.89;107166;1250;60070;-92
2022/01/08 05:57:57;;;;;;;14.30;7.00;;;;;;;-1.93;71.95;101641.27;107350;1249;61553;-88
2022/01/08 06:00:25;;;;;;;27.10;11.00;;;;;;;-1.91;71.69;101638.18;107499;1249;75518;-90
2022/01/08 06:02:54;;;;;;;46.00;14.80;;;;;;;-1.89;71.36;101640.39;107406;1249;73789;-90
2022/01/08 06:05:25;;;;;;;18.00;8.80;;;;;;;-1.90;71.05;101634.24;107418;1249;70278;-89
2022/01/08 06:07:54;;;;;;;32.60;12.50;;;;;;;-1.89;71.83;101630.48;107858;1249;73868;-90
2022/01/08 06:10:23;;;;;;;38.20;14.70;;;;;;;-1.85;71.52;101625.84;108190;1249;62657;-88
2022/01/08 06:12:53;;;;;;;128.00;36.20;;;;;;;-1.83;71.87;101622.41;108056;1249;59438;-90
2022/01/08 06:15:23;;;;;;;29.30;13.20;;;;;;;-1.81;71.96;101620.36;107988;1250;74158;-89
2022/01/08 06:17:55;;;;;;;164.10;47.40;;;;;;;-1.79;71.98;101614.02;107908;1248;71233;-90
2022/01/08 06:20:24;;;;;;;73.30;21.90;;;;;;;-1.77;71.61;101620.84;107872;1248;69816;-89
2022/01/08 06:22:53;;;;;;;64.70;24.40;;;;;;;-1.77;72.02;101622.04;107713;1249;71968;-93
2022/01/08 06:25:21;;;;;;;34.00;15.20;;;;;;;-1.78;71.75;101619.83;107586;1249;61273;-92
2022/01/08 06:27:51;;;;;;;22.80;11.70;;;;;;;-1.80;72.25;101621.39;107584;1249;61055;-92
2022/01/08 06:30:20;;;;;;;22.70;11.40;;;;;;;-1.79;72.03;101617.29;107572;1249;74733;-92
2022/01/08 06:32:49;;;;;;;19.80;11.30;;;;;;;-1.79;72.06;101617.45;107556;1249;70185;-94
2022/01/08 06:35:19;;;;;;;17.50;8.60;;;;;;;-1.77;71.75;101612.45;107539;1249;68986;-93
2022/01/08 06:37:48;;;;;;;14.50;7.90;;;;;;;-1.72;71.91;101614.31;107575;1249;73889;-91
2022/01/08 06:40:17;;;;;;;14.60;8.20;;;;;;;-1.67;71.60;101611.02;107542;1248;60797;-90
2022/01/08 06:42:46;;;;;;;13.80;8.50;;;;;;;-1.65;71.79;101610.16;107721;1249;60496;-90
2022/01/08 06:45:15;;;;;;;19.20;9.40;;;;;;;-1.61;71.50;101611.15;107659;1249;74243;-94
2022/01/08 06:47:45;;;;;;;29.50;17.10;;;;;;;-1.57;71.20;101608.05;107515;1249;71342;-94
2022/01/08 06:50:14;;;;;;;33.70;16.50;;;;;;;-1.52;70.79;101611.95;107436;1249;68434;-89
2022/01/08 06:52:43;;;;;;;25.20;13.00;;;;;;;-1.47;70.91;101611.73;107816;1249;71971;-92
2022/01/08 06:55:12;;;;;;;15.30;8.80;;;;;;;-1.41;70.82;101609.80;107971;1248;58186;-92
2022/01/08 06:57:43;;;;;;;17.30;8.30;;;;;;;-1.37;71.09;101610.79;107913;1249;61272;-94
2022/01/08 07:00:13;;;;;;;20.50;8.20;;;;;;;-1.33;70.41;101615.20;108603;1249;74012;-91
2022/01/08 07:02:43;;;;;;;13.70;8.40;;;;;;;-1.28;70.38;101611.91;109008;1249;71174;-90
2022/01/08 07:05:12;;;;;;;11.90;6.60;;;;;;;-1.22;69.99;101611.34;109374;1249;68337;-88
2022/01/08 07:07:41;;;;;;;15.50;7.10;;;;;;;-1.13;70.06;101614.33;108919;1248;71252;-90
2022/01/08 07:10:10;;;;;;;15.00;8.30;;;;;;;-1.04;70.01;101614.06;108413;1249;59844;-90
2022/01/08 07:12:39;;;;;;;15.90;7.60;;;;;;;-0.92;69.72;101612.24;108294;1249;59732;-91
2022/01/08 07:15:10;;;;;;;15.70;6.70;;;;;;;-0.83;69.35;101603.58;108732;1249;74068;-93
2022/01/08 07:17:40;;;;;;;11.80;6.50;;;;;;;-0.70;68.95;101601.05;107891;1250;72983;-83
2022/01/08 07:20:10;;;;;;;15.70;7.60;;;;;;;-0.57;68.55;101602.27;107476;1249;69922;-80
2022/01/08 07:22:39;;;;;;;17.40;9.30;;;;;;;-0.44;68.21;101606.21;107387;1250;75126;-82
2022/01/08 07:25:09;;;;;;;13.50;8.30;;;;;;;-0.34;68.17;101604.54;107450;1249;59813;-79
2022/01/08 07:27:38;;;;;;;16.70;8.40;;;;;;;-0.26;67.40;101601.02;107353;1252;60332;-80
2022/01/08 07:30:10;;;;;;;19.90;8.50;;;;;;;-0.18;67.42;101596.11;107231;1249;73591;-81
2022/01/08 07:32:47;;;;;;;12.50;7.10;;;;;;;-0.06;67.06;101600.74;107386;1249;72456;-83
2022/01/08 07:35:20;;;;;;;14.30;7.20;;;;;;;0.04;66.46;101598.55;107381;1249;70107;-83
2022/01/08 07:37:52;;;;;;;13.60;6.50;;;;;;;0.14;66.55;101593.60;107245;1249;72049;-80
2022/01/08 07:40:21;;;;;;;13.70;7.80;;;;;;;0.22;66.08;101591.74;107389;1249;59745;-82
2022/01/08 07:42:51;;;;;;;13.30;8.40;;;;;;;0.28;66.23;101590.48;107304;1249;59313;-80
2022/01/08 07:45:21;;;;;;;14.90;7.90;;;;;;;0.28;66.04;101579.15;107399;1249;71153;-83
2022/01/08 07:47:50;;;;;;;15.50;9.50;;;;;;;0.34;65.88;101585.41;107514;1249;72031;-79
2022/01/08 07:50:19;;;;;;;15.10;8.30;;;;;;;0.41;66.10;101581.34;107495;1249;69578;-84
2022/01/08 07:52:48;;;;;;;15.20;9.80;;;;;;;0.47;65.80;101579.70;107296;1249;72669;-80
2022/01/08 07:55:17;;;;;;;22.60;10.40;;;;;;;0.52;65.63;101571.90;107583;1249;60735;-84
2022/01/08 07:57:47;;;;;;;16.80;9.30;;;;;;;0.61;66.83;101569.88;107551;1249;60244;-78
2022/01/08 08:00:16;;;;;;;22.80;9.30;;;;;;;0.68;65.72;101568.72;107362;1249;72574;-82
2022/01/08 08:02:46;;;;;;;19.20;9.00;;;;;;;0.78;65.82;101565.45;107311;1249;71079;-83
2022/01/08 08:05:15;;;;;;;15.40;9.20;;;;;;;0.90;65.87;101560.44;107423;1250;69107;-84
2022/01/08 08:07:44;;;;;;;12.40;6.50;;;;;;;0.88;64.73;101560.98;107505;1249;71992;-82
2022/01/08 08:10:17;;;;;;;13.70;7.40;;;;;;;0.91;65.12;101564.52;107289;1250;60535;-85
2022/01/08 08:12:46;;;;;;;;;;;;;;;0.97;65.29;101569.20;107533;1249;60083;-81
2022/01/08 08:15:16;;;;;;;12.80;6.70;;;;;;;1.00;64.47;101565.21;107557;1249;73556;-83
2022/01/08 08:17:44;;;;;;;15.40;6.40;;;;;;;0.97;64.59;101567.16;107251;1249;73424;-83
2022/01/08 08:20:14;;;;;;;12.00;6.50;;;;;;;0.99;64.75;101570.71;107353;1249;71058;-84
2022/01/08 08:22:43;;;;;;;12.50;5.90;;;;;;;1.08;64.65;101567.80;107165;1249;72544;-83
2022/01/08 08:25:13;;;;;;;11.20;6.40;;;;;;;1.15;64.66;101566.46;107133;1249;59943;-80
2022/01/08 08:27:42;;;;;;;11.80;6.30;;;;;;;1.25;64.64;101560.59;107391;1249;61316;-81
2022/01/08 08:30:11;;;;;;;11.50;6.20;;;;;;;1.23;64.19;101557.72;107110;1249;76058;-82
2022/01/08 08:32:40;;;;;;;11.90;6.40;;;;;;;1.26;64.36;101553.04;107263;1249;69950;-82
2022/01/08 08:35:11;;;;;;;12.40;5.90;;;;;;;1.21;64.39;101552.44;107268;1249;68728;-84
2022/01/08 08:37:40;;;;;;;15.60;6.50;;;;;;;1.21;64.63;101546.25;107177;1249;73282;-82
2022/01/08 08:40:13;;;;;;;10.40;6.30;;;;;;;1.28;64.44;101547.48;107225;1249;60181;-82
2022/01/08 08:42:43;;;;;;;16.50;6.90;;;;;;;1.33;64.59;101542.25;107223;1249;61080;-83
2022/01/08 08:45:12;;;;;;;12.90;6.20;;;;;;;1.39;64.67;101538.00;107105;1249;75169;-81
2022/01/08 08:47:41;;;;;;;10.20;6.00;;;;;;;1.49;64.23;101538.46;107267;1250;69925;-81
2022/01/08 08:50:14;;;;;;;12.00;5.90;;;;;;;1.49;64.36;101536.23;107297;1249;67851;-84
2022/01/08 08:52:43;;;;;;;10.00;5.90;;;;;;;1.50;63.99;101524.89;107258;1249;75095;-82
2022/01/08 08:55:13;;;;;;;13.90;7.00;;;;;;;1.60;65.07;101521.41;107263;1249;61025;-83
2022/01/08 08:57:42;;;;;;;16.80;7.60;;;;;;;1.64;64.27;101514.10;107247;1249;59595;-85
2022/01/08 09:00:12;;;;;;;14.20;7.00;;;;;;;1.72;65.00;101513.41;107299;1249;72510;-84
2022/01/08 09:02:42;;;;;;;17.90;6.60;;;;;;;1.80;64.20;101503.26;107910;1249;68893;-82
2022/01/08 09:05:11;;;;;;;11.90;7.10;;;;;;;1.85;64.30;101500.89;107291;1249;70496;-80
2022/01/08 09:07:40;;;;;;;12.70;7.10;;;;;;;1.87;63.68;101494.33;107167;1249;71948;-83
2022/01/08 09:10:11;;;;;;;11.90;7.10;;;;;;;2.00;63.80;101491.80;107243;1249;61579;-83
2022/01/08 09:12:42;;;;;;;16.40;6.80;;;;;;;2.06;63.61;101486.67;106798;1249;60922;-83
2022/01/08 09:15:12;;;;;;;11.40;7.00;;;;;;;2.17;63.27;101484.66;107137;1249;73443;-82
2022/01/08 09:17:42;;;;;;;13.60;7.40;;;;;;;2.10;63.42;101477.45;107300;1249;70268;-84
2022/01/08 09:20:11;;;;;;;20.50;6.80;;;;;;;2.01;64.04;101471.15;107023;1249;68765;-84
2022/01/08 09:22:40;;;;;;;11.90;7.10;;;;;;;2.16;63.77;101465.80;107170;1249;72022;-84
2022/01/08 09:25:11;;;;;;;14.40;7.50;;;;;;;2.13;63.80;101459.67;107194;1249;59133;-84
2022/01/08 09:27:40;;;;;;;11.10;6.50;;;;;;;2.22;63.37;101453.09;107312;1249;59628;-86
2022/01/08 09:30:09;;;;;;;13.40;7.10;;;;;;;2.18;63.89;101444.25;107412;1249;71959;-82
2022/01/08 09:32:38;;;;;;;13.80;6.80;;;;;;;2.39;63.43;101439.23;107402;1249;70373;-81
2022/01/08 09:35:14;;;;;;;11.10;7.40;;;;;;;2.39;63.46;101431.31;107361;1249;70310;-84
2022/01/08 09:37:44;;;;;;;17.80;7.80;;;;;;;2.24;63.58;101429.66;107195;1249;71712;-82
2022/01/08 09:40:17;;;;;;;14.10;7.60;;;;;;;2.23;63.74;101422.65;107181;1250;59729;-83
2022/01/08 09:42:46;;;;;;;11.70;7.00;;;;;;;2.32;63.84;101423.59;107314;1249;60787;-82
2022/01/08 09:45:16;;;;;;;12.60;5.80;;;;;;;2.35;63.86;101424.39;107229;1251;72933;-84
2022/01/08 09:47:45;;;;;;;13.50;6.40;;;;;;;2.48;63.54;101422.14;107373;1249;71623;-84
2022/01/08 09:50:17;;;;;;;11.20;6.50;;;;;;;2.47;64.05;101424.05;107400;1249;69668;-81
2022/01/08 09:52:46;;;;;;;18.50;7.30;;;;;;;2.57;63.64;101423.09;107230;1249;72619;-82
2022/01/08 09:55:19;;;;;;;12.20;6.30;;;;;;;2.76;63.16;101422.21;107387;1249;60657;-84
2022/01/08 09:57:47;;;;;;;12.40;7.20;;;;;;;2.94;63.49;101419.62;107263;1249;61658;-86
2022/01/08 10:00:17;;;;;;;12.70;6.50;;;;;;;2.90;62.82;101414.05;107345;1249;72482;-84
2022/01/08 10:02:46;;;;;;;14.00;6.40;;;;;;;2.84;63.36;101416.14;107363;1249;72266;-84
2022/01/08 10:05:16;;;;;;;12.80;7.20;;;;;;;2.81;63.68;101409.70;107345;1249;71666;-85
2022/01/08 10:08:00;;;;;;;12.60;6.30;;;;;;;2.93;63.52;101409.86;107234;1250;72388;-85
2022/01/08 10:10:29;;;;;;;14.00;6.50;;;;;;;3.08;62.79;101403.90;107330;1249;60666;-83
2022/01/08 10:13:01;;;;;;;15.50;5.90;;;;;;;2.94;62.99;101399.15;107285;1249;60379;-85
2022/01/08 10:18:36;;;;;;;11.90;6.00;;;;;;;3.01;63.20;101394.98;107389;1249;72189;-82
2022/01/08 10:21:24;;;;;;;11.40;5.90;;;;;;;3.08;62.92;101397.86;107294;1249;70131;-82
2022/01/08 10:23:56;;;;;;;12.10;5.70;;;;;;;2.93;63.35;101394.88;107232;1248;73108;-83
2022/01/08 10:26:32;;;;;;;14.00;6.60;;;;;;;3.06;63.40;101390.20;107064;1251;59608;-84
2022/01/08 10:29:19;;;;;;;11.00;6.50;;;;;;;2.82;63.91;101390.20;107169;1249;59458;-83
2022/01/08 10:31:51;;;;;;;12.90;6.40;;;;;;;2.64;64.44;101389.00;107310;1249;75840;-85
2022/01/08 10:34:23;;;;;;;18.60;7.00;;;;;;;2.68;64.58;101385.45;107218;1249;72019;-79
2022/01/08 10:37:00;;;;;;;11.30;5.90;;;;;;;2.70;64.68;101377.67;107257;1249;69228;-79
2022/01/08 10:39:39;;;;;;;13.10;6.20;;;;;;;2.75;64.58;101377.52;107411;1249;72940;-85
2022/01/08 10:42:15;;;;;;;11.60;5.30;;;;;;;2.97;63.96;101376.19;107347;1249;60358;-84
2022/01/08 10:44:47;;;;;;;15.40;6.30;;;;;;;3.02;63.83;101376.73;107471;1249;60380;-83
2022/01/08 10:47:21;;;;;;;11.40;6.50;;;;;;;3.19;64.18;101374.46;107433;1249;72178;-84
2022/01/08 10:50:08;;;;;;;14.90;5.70;;;;;;;3.11;63.81;101375.06;107340;1250;69687;-83
2022/01/08 10:52:43;;;;;;;13.00;6.30;;;;;;;3.07;63.81;101368.83;107383;1249;68747;-82
2022/01/08 10:55:12;;;;;;;11.40;7.10;;;;;;;2.87;64.50;101368.39;107319;1249;72091;-77
2022/01/08 10:57:47;;;;;;;17.30;7.10;;;;;;;2.83;64.81;101365.73;107418;1249;59594;-82
2022/01/08 11:00:16;;;;;;;12.00;6.70;;;;;;;2.93;65.20;101360.64;107167;1250;59772;-80
2022/01/08 11:02:45;;;;;;;13.10;5.80;;;;;;;3.06;64.70;101353.19;107663;1249;72651;-86
2022/01/08 11:05:14;;;;;;;13.30;5.80;;;;;;;3.21;64.05;101351.85;107501;1249;72321;-85
2022/01/08 11:07:44;;;;;;;10.30;6.10;;;;;;;3.22;63.87;101349.94;107349;1249;67750;-85
2022/01/08 11:10:16;;;;;;;13.60;6.40;;;;;;;3.19;63.92;101344.20;107111;1249;72004;-83
2022/01/08 11:12:47;;;;;;;11.30;7.10;;;;;;;3.08;64.69;101339.36;107190;1249;59703;-84
2022/01/08 11:18:01;;;;;;;14.80;7.20;;;;;;;3.13;64.78;101336.27;107160;1250;74820;-86
2022/01/08 11:20:52;;;;;;;12.20;6.10;;;;;;;3.19;64.89;101331.27;107187;1249;71978;-85
2022/01/08 11:23:25;;;;;;;11.10;6.30;;;;;;;3.13;65.06;101329.90;107305;1249;71916;-77
2022/01/08 11:25:56;;;;;;;;;;;;;;;3.09;65.28;101330.55;107219;1249;71760;-74
2022/01/08 11:28:34;;;;;;;11.80;6.50;;;;;;;3.06;65.43;101329.27;107098;1249;62246;-73
2022/01/08 11:31:08;;;;;;;14.70;6.70;;;;;;;2.93;66.13;101332.25;107059;1249;61643;-67
2022/01/08 11:33:43;;;;;;;14.20;6.40;;;;;;;3.01;65.66;101331.84;107156;1249;72933;-66
2022/01/08 11:36:14;;;;;;;18.40;6.70;;;;;;;3.10;66.55;101334.15;107142;1249;70454;-66
2022/01/08 11:38:44;;;;;;;14.90;7.20;;;;;;;3.19;65.65;101330.41;107103;1248;69083;-67
2022/01/08 11:41:16;;;;;;;17.60;7.20;;;;;;;3.25;65.33;101321.97;107050;1249;71812;-71
2022/01/08 11:43:45;;;;;;;8.70;5.00;;;;;;;3.18;65.33;101311.16;107176;1249;59526;-88
2022/01/08 11:46:15;;;;;;;12.00;6.70;;;;;;;3.19;65.42;101307.86;107725;1251;59628;-81
2022/01/08 11:48:48;;;;;;;13.50;6.90;;;;;;;3.10;65.54;101306.41;107967;1249;75500;-90
2022/01/08 11:51:21;;;;;;;10.00;6.60;;;;;;;3.21;65.26;101304.00;108073;1249;72770;-91